sensor_id;sensor_type;location;lat;lon;timestamp;temperature;humidity
13203;DHT22;6666;51.626;7.530;2023-04-16T00:01:18;8.60;99.90
13203;DHT22;6666;51.626;7.530;2023-04-16T00:03:46;8.60;99.90
13203;DHT22;6666;51.626;7.530;2023-04-16T00:06:15;8.60;99.90
13203;DHT22;6666;51.626;7.530;2023-04-16T00:08:43;8.50;99.90
13203;DHT22;6666;51.626;7.530;2023-04-16T00:11:12;8.60;99.90
13203;DHT22;6666;51.626;7.530;2023-04-16T00:13:40;8.60;99.90
13203;DHT22;6666;51.626;7.530;2023-04-16T00:16:10;8.50;99.90
13203;DHT22;6666;51.626;7.530;2023-04-16T00:18:38;8.50;99.90
13203;DHT22;6666;51.626;7.530;2023-04-16T00:21:06;8.40;99.90
13203;DHT22;6666;51.626;7.530;2023-04-16T00:23:35;8.50;99.90
13203;DHT22;6666;51.626;7.530;2023-04-16T00:26:04;8.50;99.90
13203;DHT22;6666;51.626;7.530;2023-04-16T00:28:32;8.50;99.90
13203;DHT22;6666;51.626;7.530;2023-04-16T00:31:00;8.50;99.90
13203;DHT22;6666;51.626;7.530;2023-04-16T00:33:30;8.60;99.90
13203;DHT22;6666;51.626;7.530;2023-04-16T00:35:59;8.60;99.90
13203;DHT22;6666;51.626;7.530;2023-04-16T00:38:28;8.60;99.90
13203;DHT22;6666;51.626;7.530;2023-04-16T00:40:58;8.60;99.90
13203;DHT22;6666;51.626;7.530;2023-04-16T00:43:26;8.60;99.90
13203;DHT22;6666;51.626;7.530;2023-04-16T00:45:56;8.60;99.90
13203;DHT22;6666;51.626;7.530;2023-04-16T00:48:25;8.60;99.90
13203;DHT22;6666;51.626;7.530;2023-04-16T00:50:55;8.60;99.90
13203;DHT22;6666;51.626;7.530;2023-04-16T00:53:24;8.60;99.90
13203;DHT22;6666;51.626;7.530;2023-04-16T00:55:54;8.60;99.90
13203;DHT22;6666;51.626;7.530;2023-04-16T00:58:23;8.60;99.90
13203;DHT22;6666;51.626;7.530;2023-04-16T01:00:52;8.60;99.90
13203;DHT22;6666;51.626;7.530;2023-04-16T01:03:20;8.60;99.90
13203;DHT22;6666;51.626;7.530;2023-04-16T01:05:49;8.60;99.90
13203;DHT22;6666;51.626;7.530;2023-04-16T01:08:20;8.60;99.90
13203;DHT22;6666;51.626;7.530;2023-04-16T01:10:48;8.60;99.90
13203;DHT22;6666;51.626;7.530;2023-04-16T01:13:17;8.70;99.90
13203;DHT22;6666;51.626;7.530;2023-04-16T01:15:45;8.70;99.90
13203;DHT22;6666;51.626;7.530;2023-04-16T01:18:14;8.60;99.90
13203;DHT22;6666;51.626;7.530;2023-04-16T01:20:44;8.70;99.90
13203;DHT22;6666;51.626;7.530;2023-04-16T01:23:12;8.70;99.90
13203;DHT22;6666;51.626;7.530;2023-04-16T01:25:41;8.60;99.90
13203;DHT22;6666;51.626;7.530;2023-04-16T01:28:09;8.60;99.90
13203;DHT22;6666;51.626;7.530;2023-04-16T01:30:37;8.60;99.90
13203;DHT22;6666;51.626;7.530;2023-04-16T01:33:20;8.60;99.90
13203;DHT22;6666;51.626;7.530;2023-04-16T01:35:50;8.60;99.90
13203;DHT22;6666;51.626;7.530;2023-04-16T01:38:18;8.60;99.90
13203;DHT22;6666;51.626;7.530;2023-04-16T01:40:47;8.60;99.90
13203;DHT22;6666;51.626;7.530;2023-04-16T01:43:16;8.60;99.90
13203;DHT22;6666;51.626;7.530;2023-04-16T01:45:44;8.60;99.90
13203;DHT22;6666;51.626;7.530;2023-04-16T01:48:12;8.50;99.90
13203;DHT22;6666;51.626;7.530;2023-04-16T01:50:41;8.50;99.90
13203;DHT22;6666;51.626;7.530;2023-04-16T01:53:11;8.40;99.90
13203;DHT22;6666;51.626;7.530;2023-04-16T01:55:39;8.40;99.90
13203;DHT22;6666;51.626;7.530;2023-04-16T01:58:08;8.40;99.90
13203;DHT22;6666;51.626;7.530;2023-04-16T02:00:38;8.40;99.90
13203;DHT22;6666;51.626;7.530;2023-04-16T02:03:06;8.40;99.90
13203;DHT22;6666;51.626;7.530;2023-04-16T02:05:35;8.50;99.90
13203;DHT22;6666;51.626;7.530;2023-04-16T02:08:03;8.40;99.90
13203;DHT22;6666;51.626;7.530;2023-04-16T02:10:33;8.40;99.90
13203;DHT22;6666;51.626;7.530;2023-04-16T02:13:02;8.40;99.90
13203;DHT22;6666;51.626;7.530;2023-04-16T02:15:30;8.40;99.90
13203;DHT22;6666;51.626;7.530;2023-04-16T02:17:59;8.50;99.90
13203;DHT22;6666;51.626;7.530;2023-04-16T02:20:27;8.50;99.90
13203;DHT22;6666;51.626;7.530;2023-04-16T02:22:59;8.50;99.90
13203;DHT22;6666;51.626;7.530;2023-04-16T02:25:29;8.60;99.90
13203;DHT22;6666;51.626;7.530;2023-04-16T02:27:59;8.50;99.90
13203;DHT22;6666;51.626;7.530;2023-04-16T02:30:34;8.60;99.90
13203;DHT22;6666;51.626;7.530;2023-04-16T02:33:03;8.60;99.90
13203;DHT22;6666;51.626;7.530;2023-04-16T02:35:34;8.60;99.90
13203;DHT22;6666;51.626;7.530;2023-04-16T02:38:03;8.50;99.90
13203;DHT22;6666;51.626;7.530;2023-04-16T02:40:34;8.60;99.90
13203;DHT22;6666;51.626;7.530;2023-04-16T02:43:04;8.60;99.90
13203;DHT22;6666;51.626;7.530;2023-04-16T02:45:32;8.60;99.90
13203;DHT22;6666;51.626;7.530;2023-04-16T02:48:01;8.60;99.90
13203;DHT22;6666;51.626;7.530;2023-04-16T02:50:29;8.60;99.90
13203;DHT22;6666;51.626;7.530;2023-04-16T02:52:57;8.60;99.90
13203;DHT22;6666;51.626;7.530;2023-04-16T02:55:25;8.70;99.90
13203;DHT22;6666;51.626;7.530;2023-04-16T02:57:55;8.70;99.90
13203;DHT22;6666;51.626;7.530;2023-04-16T03:00:25;8.60;99.90
13203;DHT22;6666;51.626;7.530;2023-04-16T03:02:53;8.70;99.90
13203;DHT22;6666;51.626;7.530;2023-04-16T03:05:22;8.70;99.90
13203;DHT22;6666;51.626;7.530;2023-04-16T03:07:50;8.70;99.90
13203;DHT22;6666;51.626;7.530;2023-04-16T03:10:22;8.70;99.90
13203;DHT22;6666;51.626;7.530;2023-04-16T03:12:51;8.70;99.90
13203;DHT22;6666;51.626;7.530;2023-04-16T03:15:19;8.70;99.90
13203;DHT22;6666;51.626;7.530;2023-04-16T03:17:49;8.70;99.90
13203;DHT22;6666;51.626;7.530;2023-04-16T03:20:17;8.70;99.90
13203;DHT22;6666;51.626;7.530;2023-04-16T03:22:46;8.70;99.90
13203;DHT22;6666;51.626;7.530;2023-04-16T03:25:14;8.70;99.90
13203;DHT22;6666;51.626;7.530;2023-04-16T03:27:43;8.70;99.90
13203;DHT22;6666;51.626;7.530;2023-04-16T03:30:13;8.70;99.90
13203;DHT22;6666;51.626;7.530;2023-04-16T03:32:42;8.70;99.90
13203;DHT22;6666;51.626;7.530;2023-04-16T03:35:14;8.70;99.90
13203;DHT22;6666;51.626;7.530;2023-04-16T03:37:43;8.80;99.90
13203;DHT22;6666;51.626;7.530;2023-04-16T03:40:13;8.80;99.90
13203;DHT22;6666;51.626;7.530;2023-04-16T03:42:42;8.70;99.90
13203;DHT22;6666;51.626;7.530;2023-04-16T03:45:10;8.80;99.90
13203;DHT22;6666;51.626;7.530;2023-04-16T03:47:39;8.80;99.90
13203;DHT22;6666;51.626;7.530;2023-04-16T03:50:09;8.80;99.90
13203;DHT22;6666;51.626;7.530;2023-04-16T03:52:41;8.80;99.90
13203;DHT22;6666;51.626;7.530;2023-04-16T03:55:11;8.80;99.90
13203;DHT22;6666;51.626;7.530;2023-04-16T03:57:40;8.80;99.90
13203;DHT22;6666;51.626;7.530;2023-04-16T04:00:12;8.80;99.90
13203;DHT22;6666;51.626;7.530;2023-04-16T04:02:45;8.80;99.90
13203;DHT22;6666;51.626;7.530;2023-04-16T04:05:18;8.80;99.90
13203;DHT22;6666;51.626;7.530;2023-04-16T04:07:48;8.80;99.90
13203;DHT22;6666;51.626;7.530;2023-04-16T04:10:17;8.80;99.90
13203;DHT22;6666;51.626;7.530;2023-04-16T04:12:46;8.90;99.90
13203;DHT22;6666;51.626;7.530;2023-04-16T04:15:14;8.90;99.90
13203;DHT22;6666;51.626;7.530;2023-04-16T04:17:42;8.90;99.90
13203;DHT22;6666;51.626;7.530;2023-04-16T04:20:11;8.90;99.90
13203;DHT22;6666;51.626;7.530;2023-04-16T04:22:43;8.90;99.90
13203;DHT22;6666;51.626;7.530;2023-04-16T04:25:13;8.90;99.90
13203;DHT22;6666;51.626;7.530;2023-04-16T04:27:41;8.80;99.90
13203;DHT22;6666;51.626;7.530;2023-04-16T04:30:11;8.90;99.90
13203;DHT22;6666;51.626;7.530;2023-04-16T04:32:40;8.90;99.90
13203;DHT22;6666;51.626;7.530;2023-04-16T04:35:09;8.90;99.90
13203;DHT22;6666;51.626;7.530;2023-04-16T04:37:37;9.00;99.90
13203;DHT22;6666;51.626;7.530;2023-04-16T04:40:17;8.90;99.90
13203;DHT22;6666;51.626;7.530;2023-04-16T04:42:46;9.00;99.90
13203;DHT22;6666;51.626;7.530;2023-04-16T04:45:15;9.00;99.90
13203;DHT22;6666;51.626;7.530;2023-04-16T04:47:43;9.00;99.90
13203;DHT22;6666;51.626;7.530;2023-04-16T04:50:11;8.90;99.90
13203;DHT22;6666;51.626;7.530;2023-04-16T04:52:40;8.90;99.90
13203;DHT22;6666;51.626;7.530;2023-04-16T04:55:08;8.90;99.90
13203;DHT22;6666;51.626;7.530;2023-04-16T04:57:38;9.00;99.90
13203;DHT22;6666;51.626;7.530;2023-04-16T05:00:08;9.20;99.90
13203;DHT22;6666;51.626;7.530;2023-04-16T05:02:50;9.10;99.90
13203;DHT22;6666;51.626;7.530;2023-04-16T05:05:18;9.00;99.90
13203;DHT22;6666;51.626;7.530;2023-04-16T05:07:47;9.00;99.90
13203;DHT22;6666;51.626;7.530;2023-04-16T05:10:15;9.00;99.90
13203;DHT22;6666;51.626;7.530;2023-04-16T05:12:45;8.90;99.90
13203;DHT22;6666;51.626;7.530;2023-04-16T05:15:15;9.00;99.90
13203;DHT22;6666;51.626;7.530;2023-04-16T05:17:43;9.00;99.90
13203;DHT22;6666;51.626;7.530;2023-04-16T05:20:12;8.90;99.90
13203;DHT22;6666;51.626;7.530;2023-04-16T05:22:40;9.00;99.90
13203;DHT22;6666;51.626;7.530;2023-04-16T05:25:08;9.10;99.90
13203;DHT22;6666;51.626;7.530;2023-04-16T05:27:37;9.10;99.90
13203;DHT22;6666;51.626;7.530;2023-04-16T05:30:08;9.10;99.90
13203;DHT22;6666;51.626;7.530;2023-04-16T05:32:38;9.00;99.90
13203;DHT22;6666;51.626;7.530;2023-04-16T05:35:07;9.20;99.90
13203;DHT22;6666;51.626;7.530;2023-04-16T05:37:35;9.10;99.90
13203;DHT22;6666;51.626;7.530;2023-04-16T05:40:05;9.10;99.90
13203;DHT22;6666;51.626;7.530;2023-04-16T05:42:33;9.10;99.90
13203;DHT22;6666;51.626;7.530;2023-04-16T05:45:02;9.10;99.90
13203;DHT22;6666;51.626;7.530;2023-04-16T05:47:32;9.10;99.90
13203;DHT22;6666;51.626;7.530;2023-04-16T05:50:00;9.20;99.90
13203;DHT22;6666;51.626;7.530;2023-04-16T05:52:29;9.20;99.90
13203;DHT22;6666;51.626;7.530;2023-04-16T05:54:57;9.20;99.90
13203;DHT22;6666;51.626;7.530;2023-04-16T05:57:28;9.20;99.90
13203;DHT22;6666;51.626;7.530;2023-04-16T05:59:56;9.20;99.90
13203;DHT22;6666;51.626;7.530;2023-04-16T06:02:24;9.20;99.90
13203;DHT22;6666;51.626;7.530;2023-04-16T06:04:54;9.10;99.90
13203;DHT22;6666;51.626;7.530;2023-04-16T06:07:22;9.10;99.90
13203;DHT22;6666;51.626;7.530;2023-04-16T06:09:51;9.20;99.90
13203;DHT22;6666;51.626;7.530;2023-04-16T06:12:19;9.10;99.90
13203;DHT22;6666;51.626;7.530;2023-04-16T06:14:47;9.10;99.90
13203;DHT22;6666;51.626;7.530;2023-04-16T06:17:15;9.20;99.90
13203;DHT22;6666;51.626;7.530;2023-04-16T06:19:45;9.20;99.90
13203;DHT22;6666;51.626;7.530;2023-04-16T06:22:14;9.30;99.90
13203;DHT22;6666;51.626;7.530;2023-04-16T06:24:43;9.30;99.90
13203;DHT22;6666;51.626;7.530;2023-04-16T06:27:11;9.20;99.90
13203;DHT22;6666;51.626;7.530;2023-04-16T06:29:40;9.20;99.90
13203;DHT22;6666;51.626;7.530;2023-04-16T06:32:08;9.20;99.90
13203;DHT22;6666;51.626;7.530;2023-04-16T06:34:37;9.30;99.90
13203;DHT22;6666;51.626;7.530;2023-04-16T06:37:05;9.20;99.90
13203;DHT22;6666;51.626;7.530;2023-04-16T06:39:37;9.20;99.90
13203;DHT22;6666;51.626;7.530;2023-04-16T06:42:06;9.20;99.90
13203;DHT22;6666;51.626;7.530;2023-04-16T06:44:35;9.20;99.90
13203;DHT22;6666;51.626;7.530;2023-04-16T06:47:03;9.20;99.90
13203;DHT22;6666;51.626;7.530;2023-04-16T06:49:31;9.30;99.90
13203;DHT22;6666;51.626;7.530;2023-04-16T06:52:00;9.30;99.90
13203;DHT22;6666;51.626;7.530;2023-04-16T06:54:31;9.30;99.90
13203;DHT22;6666;51.626;7.530;2023-04-16T06:57:01;9.30;99.90
13203;DHT22;6666;51.626;7.530;2023-04-16T06:59:30;9.40;99.90
13203;DHT22;6666;51.626;7.530;2023-04-16T07:01:58;9.40;99.90
13203;DHT22;6666;51.626;7.530;2023-04-16T07:04:27;9.40;99.90
13203;DHT22;6666;51.626;7.530;2023-04-16T07:06:55;9.50;99.90
13203;DHT22;6666;51.626;7.530;2023-04-16T07:09:24;9.40;99.90
13203;DHT22;6666;51.626;7.530;2023-04-16T07:11:53;9.40;99.90
13203;DHT22;6666;51.626;7.530;2023-04-16T07:14:22;9.50;99.90
13203;DHT22;6666;51.626;7.530;2023-04-16T07:16:50;9.60;99.90
13203;DHT22;6666;51.626;7.530;2023-04-16T07:19:19;9.50;99.90
13203;DHT22;6666;51.626;7.530;2023-04-16T07:21:47;9.40;99.90
13203;DHT22;6666;51.626;7.530;2023-04-16T07:24:16;9.50;99.90
13203;DHT22;6666;51.626;7.530;2023-04-16T07:26:44;9.60;99.90
13203;DHT22;6666;51.626;7.530;2023-04-16T07:29:12;9.60;99.90
13203;DHT22;6666;51.626;7.530;2023-04-16T07:31:42;9.50;99.90
13203;DHT22;6666;51.626;7.530;2023-04-16T07:34:11;9.30;99.90
13203;DHT22;6666;51.626;7.530;2023-04-16T07:36:39;9.40;99.90
13203;DHT22;6666;51.626;7.530;2023-04-16T07:39:08;9.30;99.90
13203;DHT22;6666;51.626;7.530;2023-04-16T07:41:39;9.30;99.90
13203;DHT22;6666;51.626;7.530;2023-04-16T07:44:08;9.40;99.90
13203;DHT22;6666;51.626;7.530;2023-04-16T07:46:36;9.40;99.90
13203;DHT22;6666;51.626;7.530;2023-04-16T07:49:14;9.50;99.90
13203;DHT22;6666;51.626;7.530;2023-04-16T07:51:43;9.70;99.90
13203;DHT22;6666;51.626;7.530;2023-04-16T07:54:11;9.70;99.90
13203;DHT22;6666;51.626;7.530;2023-04-16T07:56:39;9.60;99.90
13203;DHT22;6666;51.626;7.530;2023-04-16T07:59:07;9.70;99.90
13203;DHT22;6666;51.626;7.530;2023-04-16T08:01:48;9.70;99.90
13203;DHT22;6666;51.626;7.530;2023-04-16T08:04:18;9.60;99.90
13203;DHT22;6666;51.626;7.530;2023-04-16T08:06:51;9.80;99.90
13203;DHT22;6666;51.626;7.530;2023-04-16T08:09:20;9.90;99.90
13203;DHT22;6666;51.626;7.530;2023-04-16T08:11:49;9.90;99.90
13203;DHT22;6666;51.626;7.530;2023-04-16T08:14:17;10.00;99.90
13203;DHT22;6666;51.626;7.530;2023-04-16T08:16:46;10.00;99.90
13203;DHT22;6666;51.626;7.530;2023-04-16T08:19:14;10.00;99.90
13203;DHT22;6666;51.626;7.530;2023-04-16T08:21:44;9.90;99.90
13203;DHT22;6666;51.626;7.530;2023-04-16T08:24:12;9.90;99.90
13203;DHT22;6666;51.626;7.530;2023-04-16T08:26:40;9.90;99.90
13203;DHT22;6666;51.626;7.530;2023-04-16T08:29:09;10.10;99.90
13203;DHT22;6666;51.626;7.530;2023-04-16T08:31:37;10.20;99.90
13203;DHT22;6666;51.626;7.530;2023-04-16T08:34:06;10.30;99.90
13203;DHT22;6666;51.626;7.530;2023-04-16T08:36:34;10.20;99.90
13203;DHT22;6666;51.626;7.530;2023-04-16T08:39:04;10.20;99.90
13203;DHT22;6666;51.626;7.530;2023-04-16T08:41:33;10.20;99.90
13203;DHT22;6666;51.626;7.530;2023-04-16T08:44:07;10.10;99.90
13203;DHT22;6666;51.626;7.530;2023-04-16T08:46:36;10.00;99.90
13203;DHT22;6666;51.626;7.530;2023-04-16T08:49:06;10.10;99.90
13203;DHT22;6666;51.626;7.530;2023-04-16T08:51:35;10.20;99.90
13203;DHT22;6666;51.626;7.530;2023-04-16T08:54:08;10.20;99.90
13203;DHT22;6666;51.626;7.530;2023-04-16T08:56:39;10.40;99.90
13203;DHT22;6666;51.626;7.530;2023-04-16T08:59:09;10.60;99.90
13203;DHT22;6666;51.626;7.530;2023-04-16T09:01:38;10.50;99.90
13203;DHT22;6666;51.626;7.530;2023-04-16T09:04:08;10.60;99.90
13203;DHT22;6666;51.626;7.530;2023-04-16T09:06:38;10.50;99.90
13203;DHT22;6666;51.626;7.530;2023-04-16T09:09:10;10.60;99.90
13203;DHT22;6666;51.626;7.530;2023-04-16T09:11:39;10.70;99.90
13203;DHT22;6666;51.626;7.530;2023-04-16T09:14:09;10.80;99.90
13203;DHT22;6666;51.626;7.530;2023-04-16T09:16:38;10.90;99.90
13203;DHT22;6666;51.626;7.530;2023-04-16T09:19:07;10.80;99.90
13203;DHT22;6666;51.626;7.530;2023-04-16T09:21:36;11.10;99.90
13203;DHT22;6666;51.626;7.530;2023-04-16T09:24:06;11.20;99.90
13203;DHT22;6666;51.626;7.530;2023-04-16T09:26:36;11.20;99.90
13203;DHT22;6666;51.626;7.530;2023-04-16T09:29:04;11.10;99.90
13203;DHT22;6666;51.626;7.530;2023-04-16T09:31:33;11.20;99.90
13203;DHT22;6666;51.626;7.530;2023-04-16T09:34:02;11.40;99.90
13203;DHT22;6666;51.626;7.530;2023-04-16T09:36:31;11.40;99.90
13203;DHT22;6666;51.626;7.530;2023-04-16T09:39:00;11.40;99.90
13203;DHT22;6666;51.626;7.530;2023-04-16T09:41:31;11.40;99.90
13203;DHT22;6666;51.626;7.530;2023-04-16T09:44:04;11.40;99.90
13203;DHT22;6666;51.626;7.530;2023-04-16T09:46:33;11.50;99.90
13203;DHT22;6666;51.626;7.530;2023-04-16T09:49:04;11.20;99.90
13203;DHT22;6666;51.626;7.530;2023-04-16T09:51:36;11.60;99.90
13203;DHT22;6666;51.626;7.530;2023-04-16T09:54:04;11.60;99.90
13203;DHT22;6666;51.626;7.530;2023-04-16T09:56:38;11.70;99.90
13203;DHT22;6666;51.626;7.530;2023-04-16T09:59:10;11.90;99.90
13203;DHT22;6666;51.626;7.530;2023-04-16T10:01:43;11.70;99.90
13203;DHT22;6666;51.626;7.530;2023-04-16T10:04:13;11.80;99.90
13203;DHT22;6666;51.626;7.530;2023-04-16T10:06:41;11.80;99.90
13203;DHT22;6666;51.626;7.530;2023-04-16T10:09:10;11.70;99.90
13203;DHT22;6666;51.626;7.530;2023-04-16T10:11:38;11.60;99.90
13203;DHT22;6666;51.626;7.530;2023-04-16T10:14:09;11.70;99.90
13203;DHT22;6666;51.626;7.530;2023-04-16T10:16:38;11.70;99.90
13203;DHT22;6666;51.626;7.530;2023-04-16T10:19:08;11.80;99.90
13203;DHT22;6666;51.626;7.530;2023-04-16T10:21:37;11.90;99.90
13203;DHT22;6666;51.626;7.530;2023-04-16T10:24:06;12.00;99.90
13203;DHT22;6666;51.626;7.530;2023-04-16T10:26:35;11.90;99.90
13203;DHT22;6666;51.626;7.530;2023-04-16T10:29:05;11.80;99.90
13203;DHT22;6666;51.626;7.530;2023-04-16T10:31:36;11.90;99.90
13203;DHT22;6666;51.626;7.530;2023-04-16T10:34:06;12.00;99.90
13203;DHT22;6666;51.626;7.530;2023-04-16T10:36:36;12.20;99.90
13203;DHT22;6666;51.626;7.530;2023-04-16T10:39:09;12.30;99.90
13203;DHT22;6666;51.626;7.530;2023-04-16T10:41:41;12.20;99.90
13203;DHT22;6666;51.626;7.530;2023-04-16T10:44:10;12.10;99.90
13203;DHT22;6666;51.626;7.530;2023-04-16T10:46:40;12.10;99.90
13203;DHT22;6666;51.626;7.530;2023-04-16T10:49:13;12.10;99.90
13203;DHT22;6666;51.626;7.530;2023-04-16T10:51:52;12.10;99.90
13203;DHT22;6666;51.626;7.530;2023-04-16T10:54:23;12.30;99.90
13203;DHT22;6666;51.626;7.530;2023-04-16T10:56:54;12.60;99.90
13203;DHT22;6666;51.626;7.530;2023-04-16T10:59:23;13.00;99.90
13203;DHT22;6666;51.626;7.530;2023-04-16T11:01:54;12.80;99.90
13203;DHT22;6666;51.626;7.530;2023-04-16T11:04:28;13.00;99.90
13203;DHT22;6666;51.626;7.530;2023-04-16T11:07:06;13.00;99.90
13203;DHT22;6666;51.626;7.530;2023-04-16T11:09:55;13.10;99.90
13203;DHT22;6666;51.626;7.530;2023-04-16T11:12:31;12.80;99.90
13203;DHT22;6666;51.626;7.530;2023-04-16T11:15:03;12.60;99.90
13203;DHT22;6666;51.626;7.530;2023-04-16T11:17:38;12.70;99.90
13203;DHT22;6666;51.626;7.530;2023-04-16T11:20:09;12.40;99.90
13203;DHT22;6666;51.626;7.530;2023-04-16T11:22:46;12.60;99.90
13203;DHT22;6666;51.626;7.530;2023-04-16T11:25:18;12.80;99.90
13203;DHT22;6666;51.626;7.530;2023-04-16T11:27:47;12.90;99.90
13203;DHT22;6666;51.626;7.530;2023-04-16T11:30:16;13.20;99.90
13203;DHT22;6666;51.626;7.530;2023-04-16T11:32:46;13.30;99.90
13203;DHT22;6666;51.626;7.530;2023-04-16T11:35:16;13.30;99.90
13203;DHT22;6666;51.626;7.530;2023-04-16T11:37:45;13.20;99.90
13203;DHT22;6666;51.626;7.530;2023-04-16T11:40:14;13.30;99.90
13203;DHT22;6666;51.626;7.530;2023-04-16T11:42:43;13.30;99.90
13203;DHT22;6666;51.626;7.530;2023-04-16T11:45:11;13.00;99.90
13203;DHT22;6666;51.626;7.530;2023-04-16T11:47:44;12.80;99.90
13203;DHT22;6666;51.626;7.530;2023-04-16T11:50:21;12.60;99.90
13203;DHT22;6666;51.626;7.530;2023-04-16T11:52:50;12.70;99.90
13203;DHT22;6666;51.626;7.530;2023-04-16T11:55:19;12.90;99.90
13203;DHT22;6666;51.626;7.530;2023-04-16T11:57:48;12.90;99.90
13203;DHT22;6666;51.626;7.530;2023-04-16T12:00:18;13.00;99.90
13203;DHT22;6666;51.626;7.530;2023-04-16T12:02:51;13.10;99.90
13203;DHT22;6666;51.626;7.530;2023-04-16T12:05:29;13.10;99.90
13203;DHT22;6666;51.626;7.530;2023-04-16T12:07:59;13.10;99.90
13203;DHT22;6666;51.626;7.530;2023-04-16T12:10:27;13.20;99.90
13203;DHT22;6666;51.626;7.530;2023-04-16T12:13:09;13.40;99.90
13203;DHT22;6666;51.626;7.530;2023-04-16T12:15:45;13.60;99.90
13203;DHT22;6666;51.626;7.530;2023-04-16T12:18:14;13.50;99.90
13203;DHT22;6666;51.626;7.530;2023-04-16T12:20:44;13.70;99.90
13203;DHT22;6666;51.626;7.530;2023-04-16T12:23:23;13.90;99.90
13203;DHT22;6666;51.626;7.530;2023-04-16T12:25:52;13.90;99.90
13203;DHT22;6666;51.626;7.530;2023-04-16T12:28:27;13.70;99.90
13203;DHT22;6666;51.626;7.530;2023-04-16T12:30:56;13.70;99.90
13203;DHT22;6666;51.626;7.530;2023-04-16T12:33:25;13.40;99.90
13203;DHT22;6666;51.626;7.530;2023-04-16T12:35:54;13.20;99.90
13203;DHT22;6666;51.626;7.530;2023-04-16T12:38:23;13.20;99.90
13203;DHT22;6666;51.626;7.530;2023-04-16T12:40:53;13.20;99.90
13203;DHT22;6666;51.626;7.530;2023-04-16T12:43:23;13.20;99.90
13203;DHT22;6666;51.626;7.530;2023-04-16T12:45:52;13.10;99.90
13203;DHT22;6666;51.626;7.530;2023-04-16T12:48:20;13.20;99.90
13203;DHT22;6666;51.626;7.530;2023-04-16T12:50:49;13.40;99.90
13203;DHT22;6666;51.626;7.530;2023-04-16T12:53:21;13.60;99.90
13203;DHT22;6666;51.626;7.530;2023-04-16T12:55:49;13.70;99.90
13203;DHT22;6666;51.626;7.530;2023-04-16T12:58:18;13.90;99.90
13203;DHT22;6666;51.626;7.530;2023-04-16T13:00:46;13.80;99.90
13203;DHT22;6666;51.626;7.530;2023-04-16T13:03:14;13.90;99.90
13203;DHT22;6666;51.626;7.530;2023-04-16T13:05:43;13.80;99.90
13203;DHT22;6666;51.626;7.530;2023-04-16T13:08:12;13.70;99.90
13203;DHT22;6666;51.626;7.530;2023-04-16T13:10:41;13.60;99.90
13203;DHT22;6666;51.626;7.530;2023-04-16T13:13:10;13.60;99.90
13203;DHT22;6666;51.626;7.530;2023-04-16T13:15:38;13.60;99.90
13203;DHT22;6666;51.626;7.530;2023-04-16T13:18:06;13.70;99.90
13203;DHT22;6666;51.626;7.530;2023-04-16T13:20:34;14.00;99.90
13203;DHT22;6666;51.626;7.530;2023-04-16T13:23:03;14.30;99.90
13203;DHT22;6666;51.626;7.530;2023-04-16T13:25:31;14.30;99.90
13203;DHT22;6666;51.626;7.530;2023-04-16T13:28:01;14.30;99.90
13203;DHT22;6666;51.626;7.530;2023-04-16T13:30:29;14.20;99.90
13203;DHT22;6666;51.626;7.530;2023-04-16T13:32:59;14.00;99.90
13203;DHT22;6666;51.626;7.530;2023-04-16T13:35:28;13.80;99.90
13203;DHT22;6666;51.626;7.530;2023-04-16T13:37:57;13.90;99.90
13203;DHT22;6666;51.626;7.530;2023-04-16T13:40:25;14.00;99.90
13203;DHT22;6666;51.626;7.530;2023-04-16T13:42:53;14.00;99.90
13203;DHT22;6666;51.626;7.530;2023-04-16T13:45:23;13.80;99.90
13203;DHT22;6666;51.626;7.530;2023-04-16T13:47:53;13.90;99.90
13203;DHT22;6666;51.626;7.530;2023-04-16T13:50:22;14.00;99.90
13203;DHT22;6666;51.626;7.530;2023-04-16T13:52:50;14.00;99.90
13203;DHT22;6666;51.626;7.530;2023-04-16T13:55:18;14.00;99.90
13203;DHT22;6666;51.626;7.530;2023-04-16T13:57:47;14.10;99.90
13203;DHT22;6666;51.626;7.530;2023-04-16T14:00:16;14.10;99.90
13203;DHT22;6666;51.626;7.530;2023-04-16T14:02:46;14.00;99.90
13203;DHT22;6666;51.626;7.530;2023-04-16T14:05:15;13.90;99.90
13203;DHT22;6666;51.626;7.530;2023-04-16T14:07:45;13.90;99.90
13203;DHT22;6666;51.626;7.530;2023-04-16T14:10:14;13.90;99.90
13203;DHT22;6666;51.626;7.530;2023-04-16T14:12:42;13.70;99.90
13203;DHT22;6666;51.626;7.530;2023-04-16T14:15:11;13.60;99.90
13203;DHT22;6666;51.626;7.530;2023-04-16T14:17:41;13.70;99.90
13203;DHT22;6666;51.626;7.530;2023-04-16T14:20:12;13.60;99.90
13203;DHT22;6666;51.626;7.530;2023-04-16T14:22:41;13.60;99.90
13203;DHT22;6666;51.626;7.530;2023-04-16T14:25:11;13.70;99.90
13203;DHT22;6666;51.626;7.530;2023-04-16T14:27:39;13.90;99.90
13203;DHT22;6666;51.626;7.530;2023-04-16T14:30:08;14.00;99.90
13203;DHT22;6666;51.626;7.530;2023-04-16T14:32:37;14.00;99.90
13203;DHT22;6666;51.626;7.530;2023-04-16T14:35:05;14.10;99.90
13203;DHT22;6666;51.626;7.530;2023-04-16T14:37:35;14.00;99.90
13203;DHT22;6666;51.626;7.530;2023-04-16T14:40:06;13.80;99.90
13203;DHT22;6666;51.626;7.530;2023-04-16T14:42:35;13.70;99.90
13203;DHT22;6666;51.626;7.530;2023-04-16T14:45:04;13.80;99.90
13203;DHT22;6666;51.626;7.530;2023-04-16T14:47:33;13.80;99.90
13203;DHT22;6666;51.626;7.530;2023-04-16T14:50:02;13.80;99.90
13203;DHT22;6666;51.626;7.530;2023-04-16T14:52:32;13.90;99.90
13203;DHT22;6666;51.626;7.530;2023-04-16T14:55:02;14.00;99.90
13203;DHT22;6666;51.626;7.530;2023-04-16T14:57:31;13.90;99.90
13203;DHT22;6666;51.626;7.530;2023-04-16T14:59:59;13.70;99.90
13203;DHT22;6666;51.626;7.530;2023-04-16T15:02:27;13.70;99.90
13203;DHT22;6666;51.626;7.530;2023-04-16T15:04:56;13.80;99.90
13203;DHT22;6666;51.626;7.530;2023-04-16T15:07:24;13.80;99.90
13203;DHT22;6666;51.626;7.530;2023-04-16T15:09:53;13.70;99.90
13203;DHT22;6666;51.626;7.530;2023-04-16T15:12:23;13.70;99.90
13203;DHT22;6666;51.626;7.530;2023-04-16T15:14:52;13.70;99.90
13203;DHT22;6666;51.626;7.530;2023-04-16T15:17:20;13.80;99.90
13203;DHT22;6666;51.626;7.530;2023-04-16T15:19:49;13.80;99.90
13203;DHT22;6666;51.626;7.530;2023-04-16T15:22:18;13.90;99.90
13203;DHT22;6666;51.626;7.530;2023-04-16T15:24:46;13.80;99.90
13203;DHT22;6666;51.626;7.530;2023-04-16T15:27:16;13.80;99.90
13203;DHT22;6666;51.626;7.530;2023-04-16T15:29:46;13.90;99.90
13203;DHT22;6666;51.626;7.530;2023-04-16T15:32:15;13.90;99.90
13203;DHT22;6666;51.626;7.530;2023-04-16T15:34:44;13.80;99.90
13203;DHT22;6666;51.626;7.530;2023-04-16T15:37:12;13.90;99.90
13203;DHT22;6666;51.626;7.530;2023-04-16T15:39:40;13.90;99.90
13203;DHT22;6666;51.626;7.530;2023-04-16T15:42:10;13.80;99.90
13203;DHT22;6666;51.626;7.530;2023-04-16T15:44:39;14.00;99.90
13203;DHT22;6666;51.626;7.530;2023-04-16T15:47:08;14.00;99.90
13203;DHT22;6666;51.626;7.530;2023-04-16T15:49:37;13.90;99.90
13203;DHT22;6666;51.626;7.530;2023-04-16T15:52:05;13.90;99.90
13203;DHT22;6666;51.626;7.530;2023-04-16T15:54:34;13.80;99.90
13203;DHT22;6666;51.626;7.530;2023-04-16T15:57:02;13.80;99.90
13203;DHT22;6666;51.626;7.530;2023-04-16T15:59:30;13.90;99.90
13203;DHT22;6666;51.626;7.530;2023-04-16T16:01:59;13.90;99.90
13203;DHT22;6666;51.626;7.530;2023-04-16T16:04:30;13.90;99.90
13203;DHT22;6666;51.626;7.530;2023-04-16T16:06:58;14.00;99.90
13203;DHT22;6666;51.626;7.530;2023-04-16T16:09:29;13.80;99.90